sensor_id;sensor_type;location;lat;lon;timestamp;temperature;humidity
16301;DHT22;8258;51.020;4.248;2023-04-15T00:00:10;10.00;99.90
16301;DHT22;8258;51.020;4.248;2023-04-15T00:02:37;10.10;99.90
16301;DHT22;8258;51.020;4.248;2023-04-15T00:05:06;10.20;99.90
16301;DHT22;8258;51.020;4.248;2023-04-15T00:07:34;10.20;99.90
16301;DHT22;8258;51.020;4.248;2023-04-15T00:10:01;10.20;99.90
16301;DHT22;8258;51.020;4.248;2023-04-15T00:12:28;10.30;99.90
16301;DHT22;8258;51.020;4.248;2023-04-15T00:14:55;10.30;99.90
16301;DHT22;8258;51.020;4.248;2023-04-15T00:17:23;10.20;99.90
16301;DHT22;8258;51.020;4.248;2023-04-15T00:19:50;10.00;99.90
16301;DHT22;8258;51.020;4.248;2023-04-15T00:22:19;10.10;99.90
16301;DHT22;8258;51.020;4.248;2023-04-15T00:24:47;10.10;99.90
16301;DHT22;8258;51.020;4.248;2023-04-15T00:27:14;10.00;99.90
16301;DHT22;8258;51.020;4.248;2023-04-15T00:29:41;9.90;99.90
16301;DHT22;8258;51.020;4.248;2023-04-15T00:32:08;9.90;99.90
16301;DHT22;8258;51.020;4.248;2023-04-15T00:34:34;10.00;99.90
16301;DHT22;8258;51.020;4.248;2023-04-15T00:37:02;10.00;99.90
16301;DHT22;8258;51.020;4.248;2023-04-15T00:39:30;10.10;99.90
16301;DHT22;8258;51.020;4.248;2023-04-15T00:41:57;10.10;99.90
16301;DHT22;8258;51.020;4.248;2023-04-15T00:44:24;10.00;99.90
16301;DHT22;8258;51.020;4.248;2023-04-15T00:46:51;9.80;99.90
16301;DHT22;8258;51.020;4.248;2023-04-15T00:49:18;9.90;99.90
16301;DHT22;8258;51.020;4.248;2023-04-15T00:51:45;9.90;99.90
16301;DHT22;8258;51.020;4.248;2023-04-15T00:54:12;9.80;99.90
16301;DHT22;8258;51.020;4.248;2023-04-15T00:56:41;9.90;99.90
16301;DHT22;8258;51.020;4.248;2023-04-15T00:59:08;9.90;99.90
16301;DHT22;8258;51.020;4.248;2023-04-15T01:01:36;9.90;99.90
16301;DHT22;8258;51.020;4.248;2023-04-15T01:04:03;9.80;99.90
16301;DHT22;8258;51.020;4.248;2023-04-15T01:06:30;9.60;99.90
16301;DHT22;8258;51.020;4.248;2023-04-15T01:08:58;9.50;99.90
16301;DHT22;8258;51.020;4.248;2023-04-15T01:11:26;9.40;99.90
16301;DHT22;8258;51.020;4.248;2023-04-15T01:13:55;9.40;99.90
16301;DHT22;8258;51.020;4.248;2023-04-15T01:16:24;9.40;99.90
16301;DHT22;8258;51.020;4.248;2023-04-15T01:18:53;9.40;99.90
16301;DHT22;8258;51.020;4.248;2023-04-15T01:21:20;9.50;99.90
16301;DHT22;8258;51.020;4.248;2023-04-15T01:23:48;9.50;99.90
16301;DHT22;8258;51.020;4.248;2023-04-15T01:26:18;9.40;99.90
16301;DHT22;8258;51.020;4.248;2023-04-15T01:28:46;9.40;99.90
16301;DHT22;8258;51.020;4.248;2023-04-15T01:31:14;9.50;99.90
16301;DHT22;8258;51.020;4.248;2023-04-15T01:33:41;9.50;99.90
16301;DHT22;8258;51.020;4.248;2023-04-15T01:36:09;9.50;99.90
16301;DHT22;8258;51.020;4.248;2023-04-15T01:38:36;9.60;99.90
16301;DHT22;8258;51.020;4.248;2023-04-15T01:41:04;9.70;99.90
16301;DHT22;8258;51.020;4.248;2023-04-15T01:43:34;9.70;99.90
16301;DHT22;8258;51.020;4.248;2023-04-15T01:46:01;9.70;99.90
16301;DHT22;8258;51.020;4.248;2023-04-15T01:48:28;9.60;99.90
16301;DHT22;8258;51.020;4.248;2023-04-15T01:50:55;9.40;99.90
16301;DHT22;8258;51.020;4.248;2023-04-15T01:53:23;9.40;99.90
16301;DHT22;8258;51.020;4.248;2023-04-15T01:55:50;9.40;99.90
16301;DHT22;8258;51.020;4.248;2023-04-15T01:58:18;9.40;99.90
16301;DHT22;8258;51.020;4.248;2023-04-15T02:00:46;9.30;99.90
16301;DHT22;8258;51.020;4.248;2023-04-15T02:03:13;9.30;99.90
16301;DHT22;8258;51.020;4.248;2023-04-15T02:05:40;9.30;99.90
16301;DHT22;8258;51.020;4.248;2023-04-15T02:08:07;9.40;99.90
16301;DHT22;8258;51.020;4.248;2023-04-15T02:10:34;9.30;99.90
16301;DHT22;8258;51.020;4.248;2023-04-15T02:13:01;9.30;99.90
16301;DHT22;8258;51.020;4.248;2023-04-15T02:15:29;9.30;99.90
16301;DHT22;8258;51.020;4.248;2023-04-15T02:17:57;9.40;99.90
16301;DHT22;8258;51.020;4.248;2023-04-15T02:20:25;9.30;99.90
16301;DHT22;8258;51.020;4.248;2023-04-15T02:22:52;9.20;99.90
16301;DHT22;8258;51.020;4.248;2023-04-15T02:25:19;9.20;99.90
16301;DHT22;8258;51.020;4.248;2023-04-15T02:27:46;9.10;99.90
16301;DHT22;8258;51.020;4.248;2023-04-15T02:30:13;9.00;99.90
16301;DHT22;8258;51.020;4.248;2023-04-15T02:32:40;9.10;99.90
16301;DHT22;8258;51.020;4.248;2023-04-15T02:35:10;9.10;99.90
16301;DHT22;8258;51.020;4.248;2023-04-15T02:37:38;9.20;99.90
16301;DHT22;8258;51.020;4.248;2023-04-15T02:40:08;9.30;99.90
16301;DHT22;8258;51.020;4.248;2023-04-15T02:42:37;9.40;99.90
16301;DHT22;8258;51.020;4.248;2023-04-15T02:45:05;9.30;99.90
16301;DHT22;8258;51.020;4.248;2023-04-15T02:47:32;9.10;99.90
16301;DHT22;8258;51.020;4.248;2023-04-15T02:49:59;9.20;99.90
16301;DHT22;8258;51.020;4.248;2023-04-15T02:52:28;9.20;99.90
16301;DHT22;8258;51.020;4.248;2023-04-15T02:54:55;9.00;99.90
16301;DHT22;8258;51.020;4.248;2023-04-15T02:57:25;9.00;99.90
16301;DHT22;8258;51.020;4.248;2023-04-15T02:59:53;9.00;99.90
16301;DHT22;8258;51.020;4.248;2023-04-15T03:02:20;9.10;99.90
16301;DHT22;8258;51.020;4.248;2023-04-15T03:04:47;9.20;99.90
16301;DHT22;8258;51.020;4.248;2023-04-15T03:07:14;9.20;99.90
16301;DHT22;8258;51.020;4.248;2023-04-15T03:09:42;9.20;99.90
16301;DHT22;8258;51.020;4.248;2023-04-15T03:12:09;9.30;99.90
16301;DHT22;8258;51.020;4.248;2023-04-15T03:14:36;9.40;99.90
16301;DHT22;8258;51.020;4.248;2023-04-15T03:17:03;9.30;99.90
16301;DHT22;8258;51.020;4.248;2023-04-15T03:19:30;9.20;99.90
16301;DHT22;8258;51.020;4.248;2023-04-15T03:21:57;9.10;99.90
16301;DHT22;8258;51.020;4.248;2023-04-15T03:24:24;9.10;99.90
16301;DHT22;8258;51.020;4.248;2023-04-15T03:26:53;9.20;99.90
16301;DHT22;8258;51.020;4.248;2023-04-15T03:29:20;9.20;99.90
16301;DHT22;8258;51.020;4.248;2023-04-15T03:31:47;9.10;99.90
16301;DHT22;8258;51.020;4.248;2023-04-15T03:34:14;9.10;99.90
16301;DHT22;8258;51.020;4.248;2023-04-15T03:36:41;9.10;99.90
16301;DHT22;8258;51.020;4.248;2023-04-15T03:39:08;9.00;99.90
16301;DHT22;8258;51.020;4.248;2023-04-15T03:41:35;9.00;99.90
16301;DHT22;8258;51.020;4.248;2023-04-15T03:44:03;9.00;99.90
16301;DHT22;8258;51.020;4.248;2023-04-15T03:46:30;9.20;99.90
16301;DHT22;8258;51.020;4.248;2023-04-15T03:48:58;9.10;99.90
16301;DHT22;8258;51.020;4.248;2023-04-15T03:51:25;9.10;99.90
16301;DHT22;8258;51.020;4.248;2023-04-15T03:53:52;9.00;99.90
16301;DHT22;8258;51.020;4.248;2023-04-15T03:56:18;9.10;99.90
16301;DHT22;8258;51.020;4.248;2023-04-15T03:58:45;9.10;99.90
16301;DHT22;8258;51.020;4.248;2023-04-15T04:01:14;9.20;99.90
16301;DHT22;8258;51.020;4.248;2023-04-15T04:03:41;9.20;99.90
16301;DHT22;8258;51.020;4.248;2023-04-15T04:06:08;9.10;99.90
16301;DHT22;8258;51.020;4.248;2023-04-15T04:08:35;9.20;99.90
16301;DHT22;8258;51.020;4.248;2023-04-15T04:11:02;9.20;99.90
16301;DHT22;8258;51.020;4.248;2023-04-15T04:13:28;9.20;99.90
16301;DHT22;8258;51.020;4.248;2023-04-15T04:15:55;9.10;99.90
16301;DHT22;8258;51.020;4.248;2023-04-15T04:18:24;9.10;99.90
16301;DHT22;8258;51.020;4.248;2023-04-15T04:20:51;9.00;99.90
16301;DHT22;8258;51.020;4.248;2023-04-15T04:23:18;9.10;99.90
16301;DHT22;8258;51.020;4.248;2023-04-15T04:25:45;9.10;99.90
16301;DHT22;8258;51.020;4.248;2023-04-15T04:28:12;9.00;99.90
16301;DHT22;8258;51.020;4.248;2023-04-15T04:30:39;8.90;99.90
16301;DHT22;8258;51.020;4.248;2023-04-15T04:33:06;8.90;99.90
16301;DHT22;8258;51.020;4.248;2023-04-15T04:35:35;8.80;99.90
16301;DHT22;8258;51.020;4.248;2023-04-15T04:38:02;8.70;99.90
16301;DHT22;8258;51.020;4.248;2023-04-15T04:40:29;8.70;99.90
16301;DHT22;8258;51.020;4.248;2023-04-15T04:42:56;8.70;99.90
16301;DHT22;8258;51.020;4.248;2023-04-15T04:45:23;8.70;99.90
16301;DHT22;8258;51.020;4.248;2023-04-15T04:47:50;8.70;99.90
16301;DHT22;8258;51.020;4.248;2023-04-15T04:50:17;8.70;99.90
16301;DHT22;8258;51.020;4.248;2023-04-15T04:52:45;8.80;99.90
16301;DHT22;8258;51.020;4.248;2023-04-15T04:55:12;8.80;99.90
16301;DHT22;8258;51.020;4.248;2023-04-15T04:57:39;8.80;99.90
16301;DHT22;8258;51.020;4.248;2023-04-15T05:00:07;8.80;99.90
16301;DHT22;8258;51.020;4.248;2023-04-15T05:02:34;8.70;99.90
16301;DHT22;8258;51.020;4.248;2023-04-15T05:05:01;8.70;99.90
16301;DHT22;8258;51.020;4.248;2023-04-15T05:07:28;8.70;99.90
16301;DHT22;8258;51.020;4.248;2023-04-15T05:09:57;8.80;99.90
16301;DHT22;8258;51.020;4.248;2023-04-15T05:12:24;8.80;99.90
16301;DHT22;8258;51.020;4.248;2023-04-15T05:14:51;8.90;99.90
16301;DHT22;8258;51.020;4.248;2023-04-15T05:17:18;8.90;99.90
16301;DHT22;8258;51.020;4.248;2023-04-15T05:19:45;8.90;99.90
16301;DHT22;8258;51.020;4.248;2023-04-15T05:22:12;8.90;99.90
16301;DHT22;8258;51.020;4.248;2023-04-15T05:24:39;9.00;99.90
16301;DHT22;8258;51.020;4.248;2023-04-15T05:27:07;9.00;99.90
16301;DHT22;8258;51.020;4.248;2023-04-15T05:29:36;9.00;99.90
16301;DHT22;8258;51.020;4.248;2023-04-15T05:32:03;9.00;99.90
16301;DHT22;8258;51.020;4.248;2023-04-15T05:34:30;9.10;99.90
16301;DHT22;8258;51.020;4.248;2023-04-15T05:36:57;9.00;99.90
16301;DHT22;8258;51.020;4.248;2023-04-15T05:39:24;9.10;99.90
16301;DHT22;8258;51.020;4.248;2023-04-15T05:41:51;9.10;99.90
16301;DHT22;8258;51.020;4.248;2023-04-15T05:44:19;9.00;99.90
16301;DHT22;8258;51.020;4.248;2023-04-15T05:46:46;9.10;99.90
16301;DHT22;8258;51.020;4.248;2023-04-15T05:49:13;9.10;99.90
16301;DHT22;8258;51.020;4.248;2023-04-15T05:51:40;9.20;99.90
16301;DHT22;8258;51.020;4.248;2023-04-15T05:54:07;9.30;99.90
16301;DHT22;8258;51.020;4.248;2023-04-15T05:56:34;9.40;99.90
16301;DHT22;8258;51.020;4.248;2023-04-15T05:59:01;9.10;99.90
16301;DHT22;8258;51.020;4.248;2023-04-15T06:01:29;9.30;99.90
16301;DHT22;8258;51.020;4.248;2023-04-15T06:03:56;9.30;99.90
16301;DHT22;8258;51.020;4.248;2023-04-15T06:06:23;9.30;99.90
16301;DHT22;8258;51.020;4.248;2023-04-15T06:08:51;9.50;99.90
16301;DHT22;8258;51.020;4.248;2023-04-15T06:11:20;9.50;99.90
16301;DHT22;8258;51.020;4.248;2023-04-15T06:13:47;9.70;99.90
16301;DHT22;8258;51.020;4.248;2023-04-15T06:16:14;9.80;99.90
16301;DHT22;8258;51.020;4.248;2023-04-15T06:18:43;10.00;99.90
16301;DHT22;8258;51.020;4.248;2023-04-15T06:21:10;10.20;99.90
16301;DHT22;8258;51.020;4.248;2023-04-15T06:23:37;10.50;99.90
16301;DHT22;8258;51.020;4.248;2023-04-15T06:26:05;10.60;99.90
16301;DHT22;8258;51.020;4.248;2023-04-15T06:28:32;10.50;99.90
16301;DHT22;8258;51.020;4.248;2023-04-15T06:30:59;10.70;99.90
16301;DHT22;8258;51.020;4.248;2023-04-15T06:33:27;10.90;99.90
16301;DHT22;8258;51.020;4.248;2023-04-15T06:35:55;11.00;99.90
16301;DHT22;8258;51.020;4.248;2023-04-15T06:38:22;11.00;99.90
16301;DHT22;8258;51.020;4.248;2023-04-15T06:40:49;11.20;99.90
16301;DHT22;8258;51.020;4.248;2023-04-15T06:43:16;11.20;99.90
16301;DHT22;8258;51.020;4.248;2023-04-15T06:45:43;11.30;99.90
16301;DHT22;8258;51.020;4.248;2023-04-15T06:48:10;11.40;99.90
16301;DHT22;8258;51.020;4.248;2023-04-15T06:50:37;11.50;99.90
16301;DHT22;8258;51.020;4.248;2023-04-15T06:53:06;11.70;99.90
16301;DHT22;8258;51.020;4.248;2023-04-15T06:55:33;11.90;99.90
16301;DHT22;8258;51.020;4.248;2023-04-15T06:58:00;12.60;99.90
16301;DHT22;8258;51.020;4.248;2023-04-15T07:00:26;13.00;99.90
16301;DHT22;8258;51.020;4.248;2023-04-15T07:02:54;13.00;99.90
16301;DHT22;8258;51.020;4.248;2023-04-15T07:05:21;13.00;99.90
16301;DHT22;8258;51.020;4.248;2023-04-15T07:07:48;12.80;99.90
16301;DHT22;8258;51.020;4.248;2023-04-15T07:10:17;12.60;99.90
16301;DHT22;8258;51.020;4.248;2023-04-15T07:12:45;12.60;99.90
16301;DHT22;8258;51.020;4.248;2023-04-15T07:15:11;12.80;99.90
16301;DHT22;8258;51.020;4.248;2023-04-15T07:17:39;13.70;99.90
16301;DHT22;8258;51.020;4.248;2023-04-15T07:20:07;14.60;99.90
16301;DHT22;8258;51.020;4.248;2023-04-15T07:22:34;15.70;99.90
16301;DHT22;8258;51.020;4.248;2023-04-15T07:25:01;16.60;99.90
16301;DHT22;8258;51.020;4.248;2023-04-15T07:27:29;17.20;99.90
16301;DHT22;8258;51.020;4.248;2023-04-15T07:29:56;16.40;99.90
16301;DHT22;8258;51.020;4.248;2023-04-15T07:32:23;15.80;99.90
16301;DHT22;8258;51.020;4.248;2023-04-15T07:34:50;15.70;99.90
16301;DHT22;8258;51.020;4.248;2023-04-15T07:37:18;16.60;99.90
16301;DHT22;8258;51.020;4.248;2023-04-15T07:39:45;17.40;99.90
16301;DHT22;8258;51.020;4.248;2023-04-15T07:42:12;16.80;99.90
16301;DHT22;8258;51.020;4.248;2023-04-15T07:44:41;17.10;99.90
16301;DHT22;8258;51.020;4.248;2023-04-15T07:47:08;17.70;99.90
16301;DHT22;8258;51.020;4.248;2023-04-15T07:49:35;17.40;99.90
16301;DHT22;8258;51.020;4.248;2023-04-15T07:52:02;17.50;99.90
16301;DHT22;8258;51.020;4.248;2023-04-15T07:54:29;17.80;99.90
16301;DHT22;8258;51.020;4.248;2023-04-15T07:56:56;18.40;99.90
16301;DHT22;8258;51.020;4.248;2023-04-15T07:59:23;18.40;99.90
16301;DHT22;8258;51.020;4.248;2023-04-15T08:01:53;18.20;99.90
16301;DHT22;8258;51.020;4.248;2023-04-15T08:04:20;18.80;99.90
16301;DHT22;8258;51.020;4.248;2023-04-15T08:06:47;18.90;99.90
16301;DHT22;8258;51.020;4.248;2023-04-15T08:09:14;18.20;99.90
16301;DHT22;8258;51.020;4.248;2023-04-15T08:11:41;17.60;99.90
16301;DHT22;8258;51.020;4.248;2023-04-15T08:14:08;18.20;99.90
16301;DHT22;8258;51.020;4.248;2023-04-15T08:16:35;20.00;99.90
16301;DHT22;8258;51.020;4.248;2023-04-15T08:19:04;20.80;98.40
16301;DHT22;8258;51.020;4.248;2023-04-15T08:21:31;21.40;95.10
16301;DHT22;8258;51.020;4.248;2023-04-15T08:23:58;21.50;93.70
16301;DHT22;8258;51.020;4.248;2023-04-15T08:26:26;20.90;93.50
16301;DHT22;8258;51.020;4.248;2023-04-15T08:28:53;19.70;95.10
16301;DHT22;8258;51.020;4.248;2023-04-15T08:31:20;19.20;96.50
16301;DHT22;8258;51.020;4.248;2023-04-15T08:33:47;19.40;96.10
16301;DHT22;8258;51.020;4.248;2023-04-15T08:36:19;19.00;96.20
16301;DHT22;8258;51.020;4.248;2023-04-15T08:38:46;18.10;99.90
16301;DHT22;8258;51.020;4.248;2023-04-15T08:41:20;18.30;99.00
16301;DHT22;8258;51.020;4.248;2023-04-15T08:43:52;18.30;99.20
16301;DHT22;8258;51.020;4.248;2023-04-15T08:46:20;18.50;99.20
16301;DHT22;8258;51.020;4.248;2023-04-15T08:48:48;18.50;99.40
16301;DHT22;8258;51.020;4.248;2023-04-15T08:51:17;18.60;99.30
16301;DHT22;8258;51.020;4.248;2023-04-15T08:53:45;18.20;99.80
16301;DHT22;8258;51.020;4.248;2023-04-15T08:56:14;18.40;99.90
16301;DHT22;8258;51.020;4.248;2023-04-15T08:58:42;18.80;99.90
16301;DHT22;8258;51.020;4.248;2023-04-15T09:01:10;19.50;99.00
16301;DHT22;8258;51.020;4.248;2023-04-15T09:03:38;20.20;97.10
16301;DHT22;8258;51.020;4.248;2023-04-15T09:06:05;20.10;97.10
16301;DHT22;8258;51.020;4.248;2023-04-15T09:08:34;20.70;95.50
16301;DHT22;8258;51.020;4.248;2023-04-15T09:11:01;21.20;95.80
16301;DHT22;8258;51.020;4.248;2023-04-15T09:13:28;21.70;92.10
16301;DHT22;8258;51.020;4.248;2023-04-15T09:15:55;22.00;93.00
16301;DHT22;8258;51.020;4.248;2023-04-15T09:18:26;22.70;92.40
16301;DHT22;8258;51.020;4.248;2023-04-15T09:20:54;23.60;80.30
16301;DHT22;8258;51.020;4.248;2023-04-15T09:23:21;23.70;78.30
16301;DHT22;8258;51.020;4.248;2023-04-15T09:25:50;23.30;76.40
16301;DHT22;8258;51.020;4.248;2023-04-15T09:28:23;22.80;71.30
16301;DHT22;8258;51.020;4.248;2023-04-15T09:30:54;22.50;73.40
16301;DHT22;8258;51.020;4.248;2023-04-15T09:33:21;22.60;72.60
16301;DHT22;8258;51.020;4.248;2023-04-15T09:35:56;22.90;71.30
16301;DHT22;8258;51.020;4.248;2023-04-15T09:38:24;24.10;69.70
16301;DHT22;8258;51.020;4.248;2023-04-15T09:40:52;24.10;67.20
16301;DHT22;8258;51.020;4.248;2023-04-15T09:43:19;23.40;67.00
16301;DHT22;8258;51.020;4.248;2023-04-15T09:45:47;22.50;68.80
16301;DHT22;8258;51.020;4.248;2023-04-15T09:48:17;22.70;70.10
16301;DHT22;8258;51.020;4.248;2023-04-15T09:50:45;22.90;73.30
16301;DHT22;8258;51.020;4.248;2023-04-15T09:53:16;23.30;71.40
16301;DHT22;8258;51.020;4.248;2023-04-15T09:55:45;23.90;67.10
16301;DHT22;8258;51.020;4.248;2023-04-15T09:58:21;23.00;64.70
16301;DHT22;8258;51.020;4.248;2023-04-15T10:00:49;23.20;65.70
16301;DHT22;8258;51.020;4.248;2023-04-15T10:03:19;22.70;61.40
16301;DHT22;8258;51.020;4.248;2023-04-15T10:05:47;22.80;60.60
16301;DHT22;8258;51.020;4.248;2023-04-15T10:08:16;23.00;65.00
16301;DHT22;8258;51.020;4.248;2023-04-15T10:10:44;23.30;65.50
16301;DHT22;8258;51.020;4.248;2023-04-15T10:13:13;23.20;60.40
16301;DHT22;8258;51.020;4.248;2023-04-15T10:15:43;23.70;64.80
16301;DHT22;8258;51.020;4.248;2023-04-15T10:18:15;24.00;62.80
16301;DHT22;8258;51.020;4.248;2023-04-15T10:20:42;24.70;65.60
16301;DHT22;8258;51.020;4.248;2023-04-15T10:23:10;24.40;63.40
16301;DHT22;8258;51.020;4.248;2023-04-15T10:25:38;23.70;63.20
16301;DHT22;8258;51.020;4.248;2023-04-15T10:28:06;23.60;57.80
16301;DHT22;8258;51.020;4.248;2023-04-15T10:30:35;24.20;59.00
16301;DHT22;8258;51.020;4.248;2023-04-15T10:33:04;24.10;56.60
16301;DHT22;8258;51.020;4.248;2023-04-15T10:35:32;24.00;57.20
16301;DHT22;8258;51.020;4.248;2023-04-15T10:37:59;24.50;58.90
16301;DHT22;8258;51.020;4.248;2023-04-15T10:40:28;24.70;54.30
16301;DHT22;8258;51.020;4.248;2023-04-15T10:42:57;25.20;53.40
16301;DHT22;8258;51.020;4.248;2023-04-15T10:45:25;24.80;49.30
16301;DHT22;8258;51.020;4.248;2023-04-15T10:47:56;23.70;53.40
16301;DHT22;8258;51.020;4.248;2023-04-15T10:50:27;24.20;53.80
16301;DHT22;8258;51.020;4.248;2023-04-15T10:52:55;24.50;45.90
16301;DHT22;8258;51.020;4.248;2023-04-15T10:55:24;24.30;48.10
16301;DHT22;8258;51.020;4.248;2023-04-15T10:57:52;24.90;47.80
16301;DHT22;8258;51.020;4.248;2023-04-15T11:00:24;24.90;47.50
16301;DHT22;8258;51.020;4.248;2023-04-15T11:02:53;24.90;45.60
16301;DHT22;8258;51.020;4.248;2023-04-15T11:05:21;24.40;44.30
16301;DHT22;8258;51.020;4.248;2023-04-15T11:07:52;25.50;45.30
16301;DHT22;8258;51.020;4.248;2023-04-15T11:10:50;25.80;40.70
16301;DHT22;8258;51.020;4.248;2023-04-15T11:13:23;25.30;41.10
16301;DHT22;8258;51.020;4.248;2023-04-15T11:15:57;24.50;40.00
16301;DHT22;8258;51.020;4.248;2023-04-15T11:18:27;24.70;42.20
16301;DHT22;8258;51.020;4.248;2023-04-15T11:20:57;25.20;43.40
16301;DHT22;8258;51.020;4.248;2023-04-15T11:23:30;25.60;44.20
16301;DHT22;8258;51.020;4.248;2023-04-15T11:25:59;25.50;39.80
16301;DHT22;8258;51.020;4.248;2023-04-15T11:28:26;25.00;40.10
16301;DHT22;8258;51.020;4.248;2023-04-15T11:30:54;25.20;37.20
16301;DHT22;8258;51.020;4.248;2023-04-15T11:33:22;25.00;35.90
16301;DHT22;8258;51.020;4.248;2023-04-15T11:35:51;25.10;32.50
16301;DHT22;8258;51.020;4.248;2023-04-15T11:38:19;25.20;34.40
16301;DHT22;8258;51.020;4.248;2023-04-15T11:40:48;24.90;34.50
16301;DHT22;8258;51.020;4.248;2023-04-15T11:43:17;25.30;36.60
16301;DHT22;8258;51.020;4.248;2023-04-15T11:45:50;25.50;37.70
16301;DHT22;8258;51.020;4.248;2023-04-15T11:48:18;26.90;37.80
16301;DHT22;8258;51.020;4.248;2023-04-15T11:50:45;26.80;35.50
16301;DHT22;8258;51.020;4.248;2023-04-15T11:53:13;26.20;36.30
16301;DHT22;8258;51.020;4.248;2023-04-15T11:55:44;26.00;36.20
16301;DHT22;8258;51.020;4.248;2023-04-15T11:58:14;25.90;36.30
16301;DHT22;8258;51.020;4.248;2023-04-15T12:00:46;25.70;34.30
16301;DHT22;8258;51.020;4.248;2023-04-15T12:03:16;25.90;33.70
16301;DHT22;8258;51.020;4.248;2023-04-15T12:06:10;25.60;32.80
16301;DHT22;8258;51.020;4.248;2023-04-15T12:08:57;25.60;35.30
16301;DHT22;8258;51.020;4.248;2023-04-15T12:11:30;25.50;35.10
16301;DHT22;8258;51.020;4.248;2023-04-15T12:14:03;25.80;32.00
16301;DHT22;8258;51.020;4.248;2023-04-15T12:16:32;25.70;30.10
16301;DHT22;8258;51.020;4.248;2023-04-15T12:19:00;25.30;30.00
16301;DHT22;8258;51.020;4.248;2023-04-15T12:21:33;25.30;34.20
16301;DHT22;8258;51.020;4.248;2023-04-15T12:24:03;26.00;32.00
16301;DHT22;8258;51.020;4.248;2023-04-15T12:26:33;26.50;33.90
16301;DHT22;8258;51.020;4.248;2023-04-15T12:29:04;26.80;32.70
16301;DHT22;8258;51.020;4.248;2023-04-15T12:31:32;25.90;30.00
16301;DHT22;8258;51.020;4.248;2023-04-15T12:34:00;25.80;32.30
16301;DHT22;8258;51.020;4.248;2023-04-15T12:36:28;25.90;34.80
16301;DHT22;8258;51.020;4.248;2023-04-15T12:39:01;26.40;33.50
16301;DHT22;8258;51.020;4.248;2023-04-15T12:41:27;26.10;34.10
16301;DHT22;8258;51.020;4.248;2023-04-15T12:43:54;26.50;34.40
16301;DHT22;8258;51.020;4.248;2023-04-15T12:46:23;25.70;31.70
16301;DHT22;8258;51.020;4.248;2023-04-15T12:48:50;26.00;32.20
16301;DHT22;8258;51.020;4.248;2023-04-15T12:51:18;26.00;33.90
16301;DHT22;8258;51.020;4.248;2023-04-15T12:53:46;25.70;34.30
16301;DHT22;8258;51.020;4.248;2023-04-15T12:56:14;25.20;33.10
16301;DHT22;8258;51.020;4.248;2023-04-15T12:58:41;24.60;32.10
16301;DHT22;8258;51.020;4.248;2023-04-15T13:01:08;24.30;35.00
16301;DHT22;8258;51.020;4.248;2023-04-15T13:03:37;25.00;33.20
16301;DHT22;8258;51.020;4.248;2023-04-15T13:06:04;25.20;31.70
16301;DHT22;8258;51.020;4.248;2023-04-15T13:08:31;25.00;31.80
16301;DHT22;8258;51.020;4.248;2023-04-15T13:10:58;25.00;34.60
16301;DHT22;8258;51.020;4.248;2023-04-15T13:13:25;25.60;35.50
16301;DHT22;8258;51.020;4.248;2023-04-15T13:15:53;26.60;37.00
16301;DHT22;8258;51.020;4.248;2023-04-15T13:18:20;27.10;33.30
16301;DHT22;8258;51.020;4.248;2023-04-15T13:20:50;27.30;34.30
16301;DHT22;8258;51.020;4.248;2023-04-15T13:23:17;26.80;33.70
16301;DHT22;8258;51.020;4.248;2023-04-15T13:25:44;27.00;34.80
16301;DHT22;8258;51.020;4.248;2023-04-15T13:28:11;26.40;34.20
16301;DHT22;8258;51.020;4.248;2023-04-15T13:30:38;26.50;34.50
16301;DHT22;8258;51.020;4.248;2023-04-15T13:33:05;26.60;32.80
16301;DHT22;8258;51.020;4.248;2023-04-15T13:35:32;25.90;34.80
16301;DHT22;8258;51.020;4.248;2023-04-15T13:38:00;26.00;35.20
16301;DHT22;8258;51.020;4.248;2023-04-15T13:40:27;26.40;34.40
16301;DHT22;8258;51.020;4.248;2023-04-15T13:42:54;25.30;33.40
16301;DHT22;8258;51.020;4.248;2023-04-15T13:45:22;25.40;35.70
16301;DHT22;8258;51.020;4.248;2023-04-15T13:47:49;24.80;35.50
16301;DHT22;8258;51.020;4.248;2023-04-15T13:50:16;25.10;35.20
16301;DHT22;8258;51.020;4.248;2023-04-15T13:52:43;25.70;34.80
16301;DHT22;8258;51.020;4.248;2023-04-15T13:55:11;26.30;33.30
16301;DHT22;8258;51.020;4.248;2023-04-15T13:57:38;25.80;34.80
16301;DHT22;8258;51.020;4.248;2023-04-15T14:00:06;25.90;35.50
16301;DHT22;8258;51.020;4.248;2023-04-15T14:02:33;25.70;34.00
16301;DHT22;8258;51.020;4.248;2023-04-15T14:05:00;25.60;32.80
16301;DHT22;8258;51.020;4.248;2023-04-15T14:07:28;25.80;33.10
16301;DHT22;8258;51.020;4.248;2023-04-15T14:09:55;26.00;34.40
16301;DHT22;8258;51.020;4.248;2023-04-15T14:12:24;26.30;33.50
16301;DHT22;8258;51.020;4.248;2023-04-15T14:14:51;27.00;35.00
16301;DHT22;8258;51.020;4.248;2023-04-15T14:17:18;27.40;35.00
16301;DHT22;8258;51.020;4.248;2023-04-15T14:19:45;26.30;35.00
16301;DHT22;8258;51.020;4.248;2023-04-15T14:22:12;26.10;35.80
16301;DHT22;8258;51.020;4.248;2023-04-15T14:24:39;26.40;35.90
16301;DHT22;8258;51.020;4.248;2023-04-15T14:27:06;27.10;35.70
16301;DHT22;8258;51.020;4.248;2023-04-15T14:29:37;26.50;35.30
16301;DHT22;8258;51.020;4.248;2023-04-15T14:32:04;26.60;35.80
16301;DHT22;8258;51.020;4.248;2023-04-15T14:34:31;26.70;36.00
16301;DHT22;8258;51.020;4.248;2023-04-15T14:36:58;26.40;34.40
16301;DHT22;8258;51.020;4.248;2023-04-15T14:39:25;26.10;36.30
16301;DHT22;8258;51.020;4.248;2023-04-15T14:41:52;26.10;37.20
16301;DHT22;8258;51.020;4.248;2023-04-15T14:44:20;26.10;38.10
16301;DHT22;8258;51.020;4.248;2023-04-15T14:46:48;25.70;40.00
16301;DHT22;8258;51.020;4.248;2023-04-15T14:49:16;25.80;42.50
16301;DHT22;8258;51.020;4.248;2023-04-15T14:51:43;25.10;43.50
16301;DHT22;8258;51.020;4.248;2023-04-15T14:54:11;24.50;45.10
16301;DHT22;8258;51.020;4.248;2023-04-15T14:56:37;23.00;48.70
16301;DHT22;8258;51.020;4.248;2023-04-15T14:59:04;22.70;50.00
16301;DHT22;8258;51.020;4.248;2023-04-15T15:01:32;23.40;48.30
16301;DHT22;8258;51.020;4.248;2023-04-15T15:04:00;22.80;49.40
16301;DHT22;8258;51.020;4.248;2023-04-15T15:06:27;23.40;50.20
16301;DHT22;8258;51.020;4.248;2023-04-15T15:08:54;23.90;50.40
16301;DHT22;8258;51.020;4.248;2023-04-15T15:11:21;23.60;50.90
16301;DHT22;8258;51.020;4.248;2023-04-15T15:13:48;24.30;50.20
16301;DHT22;8258;51.020;4.248;2023-04-15T15:16:15;24.00;50.20
16301;DHT22;8258;51.020;4.248;2023-04-15T15:18:42;23.60;51.70
16301;DHT22;8258;51.020;4.248;2023-04-15T15:21:11;23.00;53.10
16301;DHT22;8258;51.020;4.248;2023-04-15T15:23:38;22.60;54.70
16301;DHT22;8258;51.020;4.248;2023-04-15T15:26:05;22.50;56.30
16301;DHT22;8258;51.020;4.248;2023-04-15T15:28:32;23.10;54.40
16301;DHT22;8258;51.020;4.248;2023-04-15T15:30:59;23.40;53.40
16301;DHT22;8258;51.020;4.248;2023-04-15T15:33:26;22.50;54.40
16301;DHT22;8258;51.020;4.248;2023-04-15T15:35:53;22.70;56.40
16301;DHT22;8258;51.020;4.248;2023-04-15T15:38:21;22.40;57.90
16301;DHT22;8258;51.020;4.248;2023-04-15T15:40:48;22.00;57.50
16301;DHT22;8258;51.020;4.248;2023-04-15T15:43:15;21.20;59.20
16301;DHT22;8258;51.020;4.248;2023-04-15T15:45:42;20.40;62.90
16301;DHT22;8258;51.020;4.248;2023-04-15T15:48:09;20.10;68.90
16301;DHT22;8258;51.020;4.248;2023-04-15T15:50:36;20.10;71.70
16301;DHT22;8258;51.020;4.248;2023-04-15T15:53:03;19.80;74.50
16301;DHT22;8258;51.020;4.248;2023-04-15T15:55:31;19.30;76.80